sensor_id;sensor_type;location;lat;lon;timestamp;P1;durP1;ratioP1;P2;durP2;ratioP2
1545;SDS011;766;51.502;9.752;2023-02-28T00:01:35;2.63;;;1.50;;
1545;SDS011;766;51.502;9.752;2023-02-28T00:04:05;3.42;;;1.50;;
1545;SDS011;766;51.502;9.752;2023-02-28T00:06:35;2.60;;;1.50;;
1545;SDS011;766;51.502;9.752;2023-02-28T00:09:04;3.30;;;1.60;;
1545;SDS011;766;51.502;9.752;2023-02-28T00:11:32;2.73;;;1.80;;
1545;SDS011;766;51.502;9.752;2023-02-28T00:14:00;6.28;;;2.67;;
1545;SDS011;766;51.502;9.752;2023-02-28T00:16:30;4.32;;;1.42;;
1545;SDS011;766;51.502;9.752;2023-02-28T00:18:58;5.50;;;2.00;;
1545;SDS011;766;51.502;9.752;2023-02-28T00:21:28;3.50;;;1.30;;
1545;SDS011;766;51.502;9.752;2023-02-28T00:23:57;3.87;;;1.40;;
1545;SDS011;766;51.502;9.752;2023-02-28T00:26:25;2.95;;;1.55;;
1545;SDS011;766;51.502;9.752;2023-02-28T00:28:54;3.10;;;1.80;;
1545;SDS011;766;51.502;9.752;2023-02-28T00:31:23;3.85;;;1.80;;
1545;SDS011;766;51.502;9.752;2023-02-28T00:33:52;3.83;;;1.90;;
1545;SDS011;766;51.502;9.752;2023-02-28T00:36:21;3.05;;;1.90;;
1545;SDS011;766;51.502;9.752;2023-02-28T00:38:50;2.95;;;1.83;;
1545;SDS011;766;51.502;9.752;2023-02-28T00:41:18;4.30;;;2.13;;
1545;SDS011;766;51.502;9.752;2023-02-28T00:43:48;3.40;;;1.70;;
1545;SDS011;766;51.502;9.752;2023-02-28T00:46:16;4.75;;;2.10;;
1545;SDS011;766;51.502;9.752;2023-02-28T00:48:45;3.75;;;2.50;;
1545;SDS011;766;51.502;9.752;2023-02-28T00:51:15;2.40;;;1.73;;
1545;SDS011;766;51.502;9.752;2023-02-28T00:53:44;2.23;;;1.50;;
1545;SDS011;766;51.502;9.752;2023-02-28T00:56:14;3.72;;;1.80;;
1545;SDS011;766;51.502;9.752;2023-02-28T00:58:43;4.10;;;1.40;;
1545;SDS011;766;51.502;9.752;2023-02-28T01:01:11;2.35;;;1.70;;
1545;SDS011;766;51.502;9.752;2023-02-28T01:03:40;1.92;;;1.40;;
1545;SDS011;766;51.502;9.752;2023-02-28T01:06:09;5.55;;;1.67;;
1545;SDS011;766;51.502;9.752;2023-02-28T01:08:38;2.47;;;1.50;;
1545;SDS011;766;51.502;9.752;2023-02-28T01:11:07;2.67;;;1.47;;
1545;SDS011;766;51.502;9.752;2023-02-28T01:13:38;2.55;;;1.20;;
1545;SDS011;766;51.502;9.752;2023-02-28T01:16:06;2.05;;;1.27;;
1545;SDS011;766;51.502;9.752;2023-02-28T01:18:35;1.70;;;1.17;;
1545;SDS011;766;51.502;9.752;2023-02-28T01:21:04;4.47;;;1.30;;
1545;SDS011;766;51.502;9.752;2023-02-28T01:23:33;4.90;;;2.22;;
1545;SDS011;766;51.502;9.752;2023-02-28T01:26:03;3.97;;;1.45;;
1545;SDS011;766;51.502;9.752;2023-02-28T01:28:33;2.05;;;1.60;;
1545;SDS011;766;51.502;9.752;2023-02-28T01:31:04;5.20;;;1.83;;
1545;SDS011;766;51.502;9.752;2023-02-28T01:33:33;2.60;;;1.53;;
1545;SDS011;766;51.502;9.752;2023-02-28T01:36:04;2.77;;;1.60;;
1545;SDS011;766;51.502;9.752;2023-02-28T01:38:34;4.03;;;1.70;;
1545;SDS011;766;51.502;9.752;2023-02-28T01:41:03;4.10;;;1.47;;
1545;SDS011;766;51.502;9.752;2023-02-28T01:43:39;3.43;;;1.47;;
1545;SDS011;766;51.502;9.752;2023-02-28T01:46:22;2.07;;;1.30;;
1545;SDS011;766;51.502;9.752;2023-02-28T01:48:52;2.57;;;1.60;;
1545;SDS011;766;51.502;9.752;2023-02-28T01:51:26;3.33;;;1.33;;
1545;SDS011;766;51.502;9.752;2023-02-28T01:54:00;3.03;;;1.30;;
1545;SDS011;766;51.502;9.752;2023-02-28T01:56:33;6.70;;;1.40;;
1545;SDS011;766;51.502;9.752;2023-02-28T01:59:03;1.80;;;1.30;;
1545;SDS011;766;51.502;9.752;2023-02-28T02:01:33;1.95;;;1.30;;
1545;SDS011;766;51.502;9.752;2023-02-28T02:04:02;2.13;;;1.30;;
1545;SDS011;766;51.502;9.752;2023-02-28T02:06:34;2.08;;;1.45;;
1545;SDS011;766;51.502;9.752;2023-02-28T02:09:05;1.55;;;0.90;;
1545;SDS011;766;51.502;9.752;2023-02-28T02:11:33;2.15;;;1.20;;
1545;SDS011;766;51.502;9.752;2023-02-28T02:17:23;1.27;;;1.00;;
1545;SDS011;766;51.502;9.752;2023-02-28T02:20:13;2.30;;;1.20;;
1545;SDS011;766;51.502;9.752;2023-02-28T02:26:06;2.65;;;1.40;;
1545;SDS011;766;51.502;9.752;2023-02-28T02:29:07;2.75;;;1.25;;
1545;SDS011;766;51.502;9.752;2023-02-28T02:32:07;2.38;;;1.63;;
1545;SDS011;766;51.502;9.752;2023-02-28T02:34:53;3.13;;;1.50;;
1545;SDS011;766;51.502;9.752;2023-02-28T02:37:31;3.30;;;1.60;;
1545;SDS011;766;51.502;9.752;2023-02-28T02:40:08;2.47;;;1.00;;
1545;SDS011;766;51.502;9.752;2023-02-28T02:42:44;2.13;;;1.40;;
1545;SDS011;766;51.502;9.752;2023-02-28T02:45:24;2.20;;;1.30;;
1545;SDS011;766;51.502;9.752;2023-02-28T02:48:02;2.10;;;0.90;;
1545;SDS011;766;51.502;9.752;2023-02-28T02:50:35;2.33;;;1.30;;
1545;SDS011;766;51.502;9.752;2023-02-28T02:53:07;1.60;;;1.30;;
1545;SDS011;766;51.502;9.752;2023-02-28T02:55:38;3.13;;;1.70;;
1545;SDS011;766;51.502;9.752;2023-02-28T02:58:13;2.07;;;1.13;;
1545;SDS011;766;51.502;9.752;2023-02-28T03:00:45;2.57;;;1.33;;
1545;SDS011;766;51.502;9.752;2023-02-28T03:03:18;1.87;;;1.10;;
1545;SDS011;766;51.502;9.752;2023-02-28T03:05:57;2.27;;;1.50;;
1545;SDS011;766;51.502;9.752;2023-02-28T03:08:28;2.33;;;1.30;;
1545;SDS011;766;51.502;9.752;2023-02-28T03:10:58;1.65;;;1.23;;
1545;SDS011;766;51.502;9.752;2023-02-28T03:13:42;1.73;;;1.07;;
1545;SDS011;766;51.502;9.752;2023-02-28T03:16:32;2.60;;;1.27;;
1545;SDS011;766;51.502;9.752;2023-02-28T03:19:12;1.98;;;1.25;;
1545;SDS011;766;51.502;9.752;2023-02-28T03:22:03;1.67;;;1.30;;
1545;SDS011;766;51.502;9.752;2023-02-28T03:24:45;3.20;;;1.25;;
1545;SDS011;766;51.502;9.752;2023-02-28T03:27:21;3.23;;;1.43;;
1545;SDS011;766;51.502;9.752;2023-02-28T03:29:56;1.70;;;1.20;;
1545;SDS011;766;51.502;9.752;2023-02-28T03:32:29;2.17;;;1.40;;
1545;SDS011;766;51.502;9.752;2023-02-28T03:35:03;2.10;;;1.30;;
1545;SDS011;766;51.502;9.752;2023-02-28T03:37:38;3.40;;;1.53;;
1545;SDS011;766;51.502;9.752;2023-02-28T03:40:11;2.97;;;1.17;;
1545;SDS011;766;51.502;9.752;2023-02-28T03:42:44;2.13;;;1.20;;
1545;SDS011;766;51.502;9.752;2023-02-28T03:45:18;3.70;;;1.30;;
1545;SDS011;766;51.502;9.752;2023-02-28T03:47:51;1.90;;;1.08;;
1545;SDS011;766;51.502;9.752;2023-02-28T03:50:23;3.60;;;1.08;;
1545;SDS011;766;51.502;9.752;2023-02-28T03:52:57;3.43;;;1.30;;
1545;SDS011;766;51.502;9.752;2023-02-28T03:55:33;3.57;;;1.10;;
1545;SDS011;766;51.502;9.752;2023-02-28T03:58:08;3.60;;;1.03;;
1545;SDS011;766;51.502;9.752;2023-02-28T04:00:45;2.30;;;1.27;;
1545;SDS011;766;51.502;9.752;2023-02-28T04:03:16;6.43;;;1.57;;
1545;SDS011;766;51.502;9.752;2023-02-28T04:05:50;5.57;;;1.40;;
1545;SDS011;766;51.502;9.752;2023-02-28T04:08:21;3.60;;;1.30;;
1545;SDS011;766;51.502;9.752;2023-02-28T04:10:51;5.47;;;1.20;;
1545;SDS011;766;51.502;9.752;2023-02-28T04:13:25;2.23;;;1.23;;
1545;SDS011;766;51.502;9.752;2023-02-28T04:15:53;1.90;;;1.20;;
1545;SDS011;766;51.502;9.752;2023-02-28T04:18:23;2.17;;;1.10;;
1545;SDS011;766;51.502;9.752;2023-02-28T04:20:51;2.87;;;1.27;;
1545;SDS011;766;51.502;9.752;2023-02-28T04:23:21;3.10;;;1.57;;
1545;SDS011;766;51.502;9.752;2023-02-28T04:25:50;2.17;;;1.35;;
1545;SDS011;766;51.502;9.752;2023-02-28T04:28:22;4.28;;;1.58;;
1545;SDS011;766;51.502;9.752;2023-02-28T04:30:54;5.03;;;2.00;;
1545;SDS011;766;51.502;9.752;2023-02-28T04:33:22;4.30;;;2.27;;
1545;SDS011;766;51.502;9.752;2023-02-28T04:35:57;5.57;;;2.50;;
1545;SDS011;766;51.502;9.752;2023-02-28T04:38:32;2.83;;;1.60;;
1545;SDS011;766;51.502;9.752;2023-02-28T04:41:01;2.03;;;1.30;;
1545;SDS011;766;51.502;9.752;2023-02-28T04:43:30;3.20;;;1.67;;
1545;SDS011;766;51.502;9.752;2023-02-28T04:46:01;2.10;;;1.30;;
1545;SDS011;766;51.502;9.752;2023-02-28T04:48:32;1.97;;;1.30;;
1545;SDS011;766;51.502;9.752;2023-02-28T04:51:02;2.40;;;1.20;;
1545;SDS011;766;51.502;9.752;2023-02-28T04:53:33;5.70;;;1.07;;
1545;SDS011;766;51.502;9.752;2023-02-28T04:56:02;1.87;;;1.13;;
1545;SDS011;766;51.502;9.752;2023-02-28T04:58:31;2.57;;;1.30;;
1545;SDS011;766;51.502;9.752;2023-02-28T05:01:03;2.25;;;1.10;;
1545;SDS011;766;51.502;9.752;2023-02-28T05:03:39;1.73;;;1.33;;
1545;SDS011;766;51.502;9.752;2023-02-28T05:06:08;2.37;;;1.20;;
1545;SDS011;766;51.502;9.752;2023-02-28T05:08:38;2.17;;;1.30;;
1545;SDS011;766;51.502;9.752;2023-02-28T05:11:15;4.55;;;1.75;;
1545;SDS011;766;51.502;9.752;2023-02-28T05:13:47;1.30;;;1.00;;
1545;SDS011;766;51.502;9.752;2023-02-28T05:16:16;2.40;;;1.60;;
1545;SDS011;766;51.502;9.752;2023-02-28T05:18:45;5.10;;;1.50;;
1545;SDS011;766;51.502;9.752;2023-02-28T05:21:26;7.87;;;1.37;;
1545;SDS011;766;51.502;9.752;2023-02-28T05:23:59;5.00;;;1.53;;
1545;SDS011;766;51.502;9.752;2023-02-28T05:26:29;3.57;;;1.33;;
1545;SDS011;766;51.502;9.752;2023-02-28T05:29:01;4.10;;;2.20;;
1545;SDS011;766;51.502;9.752;2023-02-28T05:31:29;2.67;;;1.80;;
1545;SDS011;766;51.502;9.752;2023-02-28T05:33:59;3.70;;;1.57;;
1545;SDS011;766;51.502;9.752;2023-02-28T05:36:27;2.83;;;1.60;;
1545;SDS011;766;51.502;9.752;2023-02-28T05:38:56;7.07;;;2.40;;
1545;SDS011;766;51.502;9.752;2023-02-28T05:41:25;8.33;;;2.43;;
1545;SDS011;766;51.502;9.752;2023-02-28T05:43:54;5.63;;;2.22;;
1545;SDS011;766;51.502;9.752;2023-02-28T05:46:26;3.77;;;1.40;;
1545;SDS011;766;51.502;9.752;2023-02-28T05:48:55;5.20;;;2.20;;
1545;SDS011;766;51.502;9.752;2023-02-28T05:51:26;7.10;;;3.13;;
1545;SDS011;766;51.502;9.752;2023-02-28T05:54:00;8.27;;;3.30;;
1545;SDS011;766;51.502;9.752;2023-02-28T05:56:31;9.40;;;3.47;;
1545;SDS011;766;51.502;9.752;2023-02-28T05:59:00;10.93;;;3.27;;
1545;SDS011;766;51.502;9.752;2023-02-28T06:01:31;11.87;;;4.20;;
1545;SDS011;766;51.502;9.752;2023-02-28T06:04:01;16.80;;;5.57;;
1545;SDS011;766;51.502;9.752;2023-02-28T06:06:31;11.07;;;3.83;;
1545;SDS011;766;51.502;9.752;2023-02-28T06:09:02;10.67;;;4.17;;
1545;SDS011;766;51.502;9.752;2023-02-28T06:11:34;9.37;;;3.33;;
1545;SDS011;766;51.502;9.752;2023-02-28T06:14:03;12.27;;;4.47;;
1545;SDS011;766;51.502;9.752;2023-02-28T06:16:33;7.37;;;3.73;;
1545;SDS011;766;51.502;9.752;2023-02-28T06:19:03;6.20;;;2.97;;
1545;SDS011;766;51.502;9.752;2023-02-28T06:21:35;11.23;;;3.17;;
1545;SDS011;766;51.502;9.752;2023-02-28T06:24:04;5.47;;;2.63;;
1545;SDS011;766;51.502;9.752;2023-02-28T06:26:34;5.23;;;2.20;;
1545;SDS011;766;51.502;9.752;2023-02-28T06:29:03;2.77;;;1.63;;
1545;SDS011;766;51.502;9.752;2023-02-28T06:31:32;7.13;;;1.97;;
1545;SDS011;766;51.502;9.752;2023-02-28T06:34:00;2.87;;;2.07;;
1545;SDS011;766;51.502;9.752;2023-02-28T06:36:28;6.90;;;1.80;;
1545;SDS011;766;51.502;9.752;2023-02-28T06:38:57;8.07;;;2.37;;
1545;SDS011;766;51.502;9.752;2023-02-28T06:41:25;4.47;;;1.97;;
1545;SDS011;766;51.502;9.752;2023-02-28T06:43:59;6.13;;;1.90;;
1545;SDS011;766;51.502;9.752;2023-02-28T06:46:28;5.90;;;1.90;;
1545;SDS011;766;51.502;9.752;2023-02-28T06:48:56;4.17;;;1.90;;
1545;SDS011;766;51.502;9.752;2023-02-28T06:51:25;14.07;;;5.33;;
1545;SDS011;766;51.502;9.752;2023-02-28T06:53:53;11.80;;;4.60;;
1545;SDS011;766;51.502;9.752;2023-02-28T06:56:22;11.73;;;4.60;;
1545;SDS011;766;51.502;9.752;2023-02-28T06:58:51;6.10;;;2.47;;
1545;SDS011;766;51.502;9.752;2023-02-28T07:01:21;8.13;;;2.33;;
1545;SDS011;766;51.502;9.752;2023-02-28T07:03:50;6.77;;;2.30;;
1545;SDS011;766;51.502;9.752;2023-02-28T07:06:19;3.03;;;2.22;;
1545;SDS011;766;51.502;9.752;2023-02-28T07:08:49;3.90;;;1.80;;
1545;SDS011;766;51.502;9.752;2023-02-28T07:11:19;6.80;;;1.90;;
1545;SDS011;766;51.502;9.752;2023-02-28T07:13:49;2.83;;;1.30;;
1545;SDS011;766;51.502;9.752;2023-02-28T07:16:17;3.70;;;1.90;;
1545;SDS011;766;51.502;9.752;2023-02-28T07:18:47;3.67;;;1.40;;
1545;SDS011;766;51.502;9.752;2023-02-28T07:21:20;4.90;;;1.60;;
1545;SDS011;766;51.502;9.752;2023-02-28T07:23:49;4.13;;;1.83;;
1545;SDS011;766;51.502;9.752;2023-02-28T07:26:18;3.87;;;1.90;;
1545;SDS011;766;51.502;9.752;2023-02-28T07:28:47;7.93;;;3.40;;
1545;SDS011;766;51.502;9.752;2023-02-28T07:31:16;10.47;;;4.03;;
1545;SDS011;766;51.502;9.752;2023-02-28T07:33:45;10.40;;;3.97;;
1545;SDS011;766;51.502;9.752;2023-02-28T07:36:17;11.33;;;4.30;;
1545;SDS011;766;51.502;9.752;2023-02-28T07:38:47;7.35;;;3.00;;
1545;SDS011;766;51.502;9.752;2023-02-28T07:41:17;4.75;;;2.38;;
1545;SDS011;766;51.502;9.752;2023-02-28T07:43:47;7.00;;;2.53;;
1545;SDS011;766;51.502;9.752;2023-02-28T07:46:16;8.37;;;2.67;;
1545;SDS011;766;51.502;9.752;2023-02-28T07:48:48;3.03;;;1.50;;
1545;SDS011;766;51.502;9.752;2023-02-28T07:51:16;3.93;;;1.73;;
1545;SDS011;766;51.502;9.752;2023-02-28T07:53:45;2.73;;;1.33;;
1545;SDS011;766;51.502;9.752;2023-02-28T07:56:14;3.63;;;1.63;;
1545;SDS011;766;51.502;9.752;2023-02-28T07:58:43;5.63;;;2.47;;
1545;SDS011;766;51.502;9.752;2023-02-28T08:01:12;6.50;;;2.93;;
1545;SDS011;766;51.502;9.752;2023-02-28T08:03:44;6.13;;;3.07;;
1545;SDS011;766;51.502;9.752;2023-02-28T08:06:16;9.07;;;2.75;;
1545;SDS011;766;51.502;9.752;2023-02-28T08:08:48;2.97;;;1.70;;
1545;SDS011;766;51.502;9.752;2023-02-28T08:11:17;7.83;;;1.83;;
1545;SDS011;766;51.502;9.752;2023-02-28T08:13:46;2.97;;;1.67;;
1545;SDS011;766;51.502;9.752;2023-02-28T08:16:14;3.70;;;1.70;;
1545;SDS011;766;51.502;9.752;2023-02-28T08:18:50;3.47;;;2.10;;
1545;SDS011;766;51.502;9.752;2023-02-28T08:21:21;4.85;;;1.80;;
1545;SDS011;766;51.502;9.752;2023-02-28T08:23:50;3.47;;;1.43;;
1545;SDS011;766;51.502;9.752;2023-02-28T08:26:18;10.82;;;1.90;;
1545;SDS011;766;51.502;9.752;2023-02-28T08:28:47;2.23;;;1.40;;
1545;SDS011;766;51.502;9.752;2023-02-28T08:31:16;2.07;;;1.60;;
1545;SDS011;766;51.502;9.752;2023-02-28T08:33:46;3.00;;;1.60;;
1545;SDS011;766;51.502;9.752;2023-02-28T08:36:17;3.07;;;1.60;;
1545;SDS011;766;51.502;9.752;2023-02-28T08:38:47;4.33;;;1.77;;
1545;SDS011;766;51.502;9.752;2023-02-28T08:41:16;2.60;;;1.83;;
1545;SDS011;766;51.502;9.752;2023-02-28T08:43:44;3.37;;;1.70;;
1545;SDS011;766;51.502;9.752;2023-02-28T08:46:13;4.37;;;2.00;;
1545;SDS011;766;51.502;9.752;2023-02-28T08:48:42;3.07;;;2.00;;
1545;SDS011;766;51.502;9.752;2023-02-28T08:51:11;4.97;;;1.92;;
1545;SDS011;766;51.502;9.752;2023-02-28T08:53:43;4.63;;;2.72;;
1545;SDS011;766;51.502;9.752;2023-02-28T08:56:14;4.65;;;2.35;;
1545;SDS011;766;51.502;9.752;2023-02-28T08:58:44;3.45;;;2.00;;
1545;SDS011;766;51.502;9.752;2023-02-28T09:01:13;3.83;;;1.93;;
1545;SDS011;766;51.502;9.752;2023-02-28T09:03:44;2.57;;;1.73;;
1545;SDS011;766;51.502;9.752;2023-02-28T09:21:34;4.17;;;2.03;;
1545;SDS011;766;51.502;9.752;2023-02-28T09:40:58;4.40;;;2.00;;
1545;SDS011;766;51.502;9.752;2023-02-28T09:44:42;6.45;;;2.25;;
1545;SDS011;766;51.502;9.752;2023-02-28T09:47:14;6.10;;;2.13;;
1545;SDS011;766;51.502;9.752;2023-02-28T09:50:13;5.10;;;1.92;;
1545;SDS011;766;51.502;9.752;2023-02-28T10:01:21;3.78;;;1.90;;
1545;SDS011;766;51.502;9.752;2023-02-28T10:08:12;3.88;;;2.03;;
1545;SDS011;766;51.502;9.752;2023-02-28T10:10:45;5.93;;;2.30;;
1545;SDS011;766;51.502;9.752;2023-02-28T10:13:22;3.10;;;2.13;;
1545;SDS011;766;51.502;9.752;2023-02-28T10:15:56;6.50;;;2.13;;
1545;SDS011;766;51.502;9.752;2023-02-28T10:18:37;3.75;;;2.08;;
1545;SDS011;766;51.502;9.752;2023-02-28T10:21:13;2.45;;;1.88;;
1545;SDS011;766;51.502;9.752;2023-02-28T10:23:48;4.63;;;1.95;;
1545;SDS011;766;51.502;9.752;2023-02-28T10:26:19;3.95;;;2.13;;
1545;SDS011;766;51.502;9.752;2023-02-28T10:28:49;3.92;;;2.13;;
1545;SDS011;766;51.502;9.752;2023-02-28T10:31:20;3.53;;;2.03;;
1545;SDS011;766;51.502;9.752;2023-02-28T10:33:52;4.90;;;2.88;;
1545;SDS011;766;51.502;9.752;2023-02-28T10:36:21;3.50;;;2.42;;
1545;SDS011;766;51.502;9.752;2023-02-28T10:38:50;5.65;;;2.85;;
1545;SDS011;766;51.502;9.752;2023-02-28T10:41:26;5.28;;;2.10;;
1545;SDS011;766;51.502;9.752;2023-02-28T10:44:14;4.40;;;2.30;;
1545;SDS011;766;51.502;9.752;2023-02-28T10:46:48;4.95;;;2.63;;
1545;SDS011;766;51.502;9.752;2023-02-28T10:49:17;4.15;;;2.45;;
1545;SDS011;766;51.502;9.752;2023-02-28T10:51:49;4.43;;;2.40;;
1545;SDS011;766;51.502;9.752;2023-02-28T10:54:22;7.70;;;2.35;;
1545;SDS011;766;51.502;9.752;2023-02-28T10:59:50;4.72;;;2.30;;
1545;SDS011;766;51.502;9.752;2023-02-28T11:02:29;3.20;;;2.20;;
1545;SDS011;766;51.502;9.752;2023-02-28T11:05:00;4.25;;;2.30;;
1545;SDS011;766;51.502;9.752;2023-02-28T11:07:28;6.55;;;2.58;;
1545;SDS011;766;51.502;9.752;2023-02-28T11:10:17;3.10;;;2.35;;
1545;SDS011;766;51.502;9.752;2023-02-28T11:12:48;3.42;;;2.47;;
1545;SDS011;766;51.502;9.752;2023-02-28T11:15:22;3.08;;;2.38;;
1545;SDS011;766;51.502;9.752;2023-02-28T11:17:53;3.25;;;2.22;;
1545;SDS011;766;51.502;9.752;2023-02-28T11:20:23;4.18;;;2.47;;
1545;SDS011;766;51.502;9.752;2023-02-28T11:22:55;4.20;;;2.47;;
1545;SDS011;766;51.502;9.752;2023-02-28T11:25:31;6.38;;;2.50;;
1545;SDS011;766;51.502;9.752;2023-02-28T11:28:02;2.95;;;2.20;;
1545;SDS011;766;51.502;9.752;2023-02-28T11:30:35;6.70;;;2.58;;
1545;SDS011;766;51.502;9.752;2023-02-28T11:33:18;3.53;;;2.30;;
1545;SDS011;766;51.502;9.752;2023-02-28T11:35:50;7.00;;;2.90;;
1545;SDS011;766;51.502;9.752;2023-02-28T11:38:21;4.53;;;2.45;;
1545;SDS011;766;51.502;9.752;2023-02-28T11:40:52;3.92;;;2.22;;
1545;SDS011;766;51.502;9.752;2023-02-28T11:43:34;5.00;;;2.33;;
1545;SDS011;766;51.502;9.752;2023-02-28T11:46:18;4.05;;;2.60;;
1545;SDS011;766;51.502;9.752;2023-02-28T11:48:56;4.97;;;2.60;;
1545;SDS011;766;51.502;9.752;2023-02-28T11:51:40;3.90;;;2.30;;
1545;SDS011;766;51.502;9.752;2023-02-28T11:54:22;5.10;;;2.80;;
1545;SDS011;766;51.502;9.752;2023-02-28T11:57:00;4.38;;;2.70;;
1545;SDS011;766;51.502;9.752;2023-02-28T11:59:43;5.28;;;3.17;;
1545;SDS011;766;51.502;9.752;2023-02-28T12:02:22;4.18;;;2.50;;
1545;SDS011;766;51.502;9.752;2023-02-28T12:05:09;3.40;;;2.33;;
1545;SDS011;766;51.502;9.752;2023-02-28T12:07:48;4.82;;;2.72;;
1545;SDS011;766;51.502;9.752;2023-02-28T12:10:26;4.20;;;2.85;;
1545;SDS011;766;51.502;9.752;2023-02-28T12:13:02;3.38;;;2.00;;
1545;SDS011;766;51.502;9.752;2023-02-28T12:18:45;6.03;;;2.35;;
1545;SDS011;766;51.502;9.752;2023-02-28T12:21:25;3.65;;;2.33;;
1545;SDS011;766;51.502;9.752;2023-02-28T12:24:04;3.22;;;2.40;;
1545;SDS011;766;51.502;9.752;2023-02-28T12:26:46;6.95;;;3.55;;
1545;SDS011;766;51.502;9.752;2023-02-28T12:29:17;4.85;;;2.83;;
1545;SDS011;766;51.502;9.752;2023-02-28T12:31:52;4.55;;;2.90;;
1545;SDS011;766;51.502;9.752;2023-02-28T12:34:27;3.60;;;2.65;;
1545;SDS011;766;51.502;9.752;2023-02-28T12:37:01;4.38;;;2.85;;
1545;SDS011;766;51.502;9.752;2023-02-28T12:39:36;5.10;;;2.47;;
1545;SDS011;766;51.502;9.752;2023-02-28T12:42:19;6.57;;;2.90;;
1545;SDS011;766;51.502;9.752;2023-02-28T12:44:56;2.90;;;2.45;;
1545;SDS011;766;51.502;9.752;2023-02-28T12:47:26;4.95;;;2.65;;
1545;SDS011;766;51.502;9.752;2023-02-28T12:49:58;3.05;;;2.10;;
1545;SDS011;766;51.502;9.752;2023-02-28T12:52:35;5.55;;;2.58;;
1545;SDS011;766;51.502;9.752;2023-02-28T12:55:11;4.03;;;2.55;;
1545;SDS011;766;51.502;9.752;2023-02-28T12:57:48;4.63;;;2.83;;
1545;SDS011;766;51.502;9.752;2023-02-28T13:00:24;4.50;;;2.60;;
1545;SDS011;766;51.502;9.752;2023-02-28T13:03:01;4.10;;;2.50;;
1545;SDS011;766;51.502;9.752;2023-02-28T13:09:01;3.72;;;2.70;;
1545;SDS011;766;51.502;9.752;2023-02-28T13:11:40;3.50;;;2.42;;
1545;SDS011;766;51.502;9.752;2023-02-28T13:14:20;3.67;;;2.58;;
1545;SDS011;766;51.502;9.752;2023-02-28T13:16:57;5.15;;;2.50;;
1545;SDS011;766;51.502;9.752;2023-02-28T13:19:29;3.75;;;2.67;;
1545;SDS011;766;51.502;9.752;2023-02-28T13:22:02;3.88;;;2.22;;
1545;SDS011;766;51.502;9.752;2023-02-28T13:24:43;3.63;;;2.33;;
1545;SDS011;766;51.502;9.752;2023-02-28T13:33:21;3.40;;;2.30;;
1545;SDS011;766;51.502;9.752;2023-02-28T13:36:08;4.13;;;2.80;;
1545;SDS011;766;51.502;9.752;2023-02-28T13:38:51;5.68;;;3.17;;
1545;SDS011;766;51.502;9.752;2023-02-28T13:41:44;4.40;;;2.30;;
1545;SDS011;766;51.502;9.752;2023-02-28T13:44:15;3.33;;;2.33;;
1545;SDS011;766;51.502;9.752;2023-02-28T13:50:21;5.35;;;2.60;;
1545;SDS011;766;51.502;9.752;2023-02-28T13:52:58;5.05;;;2.90;;
1545;SDS011;766;51.502;9.752;2023-02-28T13:56:00;5.25;;;2.83;;
1545;SDS011;766;51.502;9.752;2023-02-28T13:58:39;3.50;;;2.10;;
1545;SDS011;766;51.502;9.752;2023-02-28T14:07:28;7.57;;;2.85;;
1545;SDS011;766;51.502;9.752;2023-02-28T14:10:03;4.70;;;2.88;;
1545;SDS011;766;51.502;9.752;2023-02-28T14:15:27;4.38;;;3.08;;
1545;SDS011;766;51.502;9.752;2023-02-28T14:18:05;4.20;;;2.35;;
1545;SDS011;766;51.502;9.752;2023-02-28T14:20:40;8.40;;;2.92;;
1545;SDS011;766;51.502;9.752;2023-02-28T14:23:13;7.38;;;2.97;;
1545;SDS011;766;51.502;9.752;2023-02-28T14:25:51;8.18;;;2.92;;
1545;SDS011;766;51.502;9.752;2023-02-28T14:28:35;6.53;;;2.80;;
1545;SDS011;766;51.502;9.752;2023-02-28T14:31:17;4.00;;;2.55;;
1545;SDS011;766;51.502;9.752;2023-02-28T14:33:59;4.72;;;2.65;;
1545;SDS011;766;51.502;9.752;2023-02-28T14:36:41;3.83;;;2.08;;
1545;SDS011;766;51.502;9.752;2023-02-28T14:39:11;5.30;;;3.00;;
1545;SDS011;766;51.502;9.752;2023-02-28T14:41:42;5.57;;;3.15;;
1545;SDS011;766;51.502;9.752;2023-02-28T14:44:17;4.18;;;3.00;;
1545;SDS011;766;51.502;9.752;2023-02-28T14:46:52;4.55;;;2.88;;
1545;SDS011;766;51.502;9.752;2023-02-28T14:49:24;5.05;;;3.05;;
1545;SDS011;766;51.502;9.752;2023-02-28T14:52:02;5.25;;;2.95;;
1545;SDS011;766;51.502;9.752;2023-02-28T14:54:35;4.63;;;3.22;;
1545;SDS011;766;51.502;9.752;2023-02-28T14:57:04;5.30;;;3.35;;
1545;SDS011;766;51.502;9.752;2023-02-28T14:59:35;7.75;;;3.35;;
1545;SDS011;766;51.502;9.752;2023-02-28T15:02:13;6.13;;;2.90;;
1545;SDS011;766;51.502;9.752;2023-02-28T15:04:53;6.43;;;3.40;;
1545;SDS011;766;51.502;9.752;2023-02-28T15:07:24;5.47;;;3.10;;
1545;SDS011;766;51.502;9.752;2023-02-28T15:10:13;6.05;;;3.47;;
1545;SDS011;766;51.502;9.752;2023-02-28T15:12:49;4.35;;;2.67;;
1545;SDS011;766;51.502;9.752;2023-02-28T15:15:25;9.75;;;3.80;;
1545;SDS011;766;51.502;9.752;2023-02-28T15:18:26;5.20;;;3.45;;
1545;SDS011;766;51.502;9.752;2023-02-28T15:21:00;7.78;;;3.50;;
1545;SDS011;766;51.502;9.752;2023-02-28T15:23:31;5.45;;;3.67;;
1545;SDS011;766;51.502;9.752;2023-02-28T15:26:02;9.63;;;3.55;;
1545;SDS011;766;51.502;9.752;2023-02-28T15:28:32;5.22;;;3.17;;
1545;SDS011;766;51.502;9.752;2023-02-28T15:31:03;5.22;;;3.15;;
1545;SDS011;766;51.502;9.752;2023-02-28T15:33:52;6.85;;;3.58;;
1545;SDS011;766;51.502;9.752;2023-02-28T15:36:23;5.85;;;3.30;;
1545;SDS011;766;51.502;9.752;2023-02-28T15:38:54;5.75;;;2.97;;
1545;SDS011;766;51.502;9.752;2023-02-28T15:41:40;6.10;;;3.42;;
1545;SDS011;766;51.502;9.752;2023-02-28T15:47:05;6.88;;;3.45;;
1545;SDS011;766;51.502;9.752;2023-02-28T15:49:45;5.32;;;3.30;;
1545;SDS011;766;51.502;9.752;2023-02-28T15:52:17;6.30;;;3.92;;
1545;SDS011;766;51.502;9.752;2023-02-28T15:54:49;9.13;;;4.05;;
1545;SDS011;766;51.502;9.752;2023-02-28T15:57:19;7.65;;;4.43;;
1545;SDS011;766;51.502;9.752;2023-02-28T15:59:54;9.63;;;3.92;;
1545;SDS011;766;51.502;9.752;2023-02-28T16:02:31;7.10;;;3.45;;
1545;SDS011;766;51.502;9.752;2023-02-28T16:07:55;7.80;;;4.30;;
1545;SDS011;766;51.502;9.752;2023-02-28T16:10:24;7.60;;;3.40;;
1545;SDS011;766;51.502;9.752;2023-02-28T16:12:56;6.20;;;3.88;;
1545;SDS011;766;51.502;9.752;2023-02-28T16:15:25;5.47;;;3.65;;
1545;SDS011;766;51.502;9.752;2023-02-28T16:17:57;5.80;;;3.38;;
1545;SDS011;766;51.502;9.752;2023-02-28T16:20:29;7.15;;;3.80;;
1545;SDS011;766;51.502;9.752;2023-02-28T16:22:58;4.70;;;3.10;;
1545;SDS011;766;51.502;9.752;2023-02-28T16:25:33;9.90;;;4.20;;
1545;SDS011;766;51.502;9.752;2023-02-28T16:28:03;6.40;;;3.88;;
1545;SDS011;766;51.502;9.752;2023-02-28T16:30:35;7.57;;;4.28;;
1545;SDS011;766;51.502;9.752;2023-02-28T16:33:07;9.05;;;4.40;;
1545;SDS011;766;51.502;9.752;2023-02-28T16:35:37;7.50;;;4.03;;
1545;SDS011;766;51.502;9.752;2023-02-28T16:38:05;8.23;;;4.60;;
1545;SDS011;766;51.502;9.752;2023-02-28T16:40:36;7.43;;;4.90;;
1545;SDS011;766;51.502;9.752;2023-02-28T16:43:05;7.03;;;4.43;;
1545;SDS011;766;51.502;9.752;2023-02-28T16:45:38;9.95;;;5.28;;
1545;SDS011;766;51.502;9.752;2023-02-28T16:48:08;8.80;;;5.32;;
1545;SDS011;766;51.502;9.752;2023-02-28T16:50:43;7.28;;;4.60;;
1545;SDS011;766;51.502;9.752;2023-02-28T16:53:11;8.15;;;4.57;;
1545;SDS011;766;51.502;9.752;2023-02-28T16:55:40;9.73;;;4.47;;
1545;SDS011;766;51.502;9.752;2023-02-28T16:58:13;11.57;;;4.78;;
1545;SDS011;766;51.502;9.752;2023-02-28T17:00:42;6.68;;;4.35;;
1545;SDS011;766;51.502;9.752;2023-02-28T17:03:19;8.02;;;4.38;;
1545;SDS011;766;51.502;9.752;2023-02-28T17:05:58;10.93;;;5.50;;
1545;SDS011;766;51.502;9.752;2023-02-28T17:08:27;10.13;;;5.13;;
1545;SDS011;766;51.502;9.752;2023-02-28T17:10:56;10.53;;;5.70;;
1545;SDS011;766;51.502;9.752;2023-02-28T17:13:24;10.07;;;5.67;;
1545;SDS011;766;51.502;9.752;2023-02-28T17:15:53;12.33;;;6.23;;
1545;SDS011;766;51.502;9.752;2023-02-28T17:18:23;11.70;;;5.90;;
1545;SDS011;766;51.502;9.752;2023-02-28T17:20:53;11.47;;;5.10;;
1545;SDS011;766;51.502;9.752;2023-02-28T17:23:21;11.77;;;6.25;;
1545;SDS011;766;51.502;9.752;2023-02-28T17:25:49;10.37;;;6.03;;
1545;SDS011;766;51.502;9.752;2023-02-28T17:28:23;18.80;;;8.18;;
1545;SDS011;766;51.502;9.752;2023-02-28T17:30:56;15.60;;;8.17;;
1545;SDS011;766;51.502;9.752;2023-02-28T17:33:26;10.48;;;5.75;;